sensor_id;sensor_type;location;lat;lon;timestamp;P1;durP1;ratioP1;P2;durP2;ratioP2
16173;SDS011;14031;50.158;8.626;2024-01-16T00:00:22;2.43;;;2.30;;
16173;SDS011;14031;50.158;8.626;2024-01-16T00:02:50;3.50;;;2.37;;
16173;SDS011;14031;50.158;8.626;2024-01-16T00:05:17;3.33;;;2.50;;
16173;SDS011;14031;50.158;8.626;2024-01-16T00:07:44;3.33;;;2.23;;
16173;SDS011;14031;50.158;8.626;2024-01-16T00:10:10;2.70;;;2.30;;
16173;SDS011;14031;50.158;8.626;2024-01-16T00:12:37;7.13;;;2.20;;
16173;SDS011;14031;50.158;8.626;2024-01-16T00:15:05;5.10;;;2.60;;
16173;SDS011;14031;50.158;8.626;2024-01-16T00:17:33;5.70;;;2.20;;
16173;SDS011;14031;50.158;8.626;2024-01-16T00:20:01;5.57;;;2.57;;
16173;SDS011;14031;50.158;8.626;2024-01-16T00:22:30;5.97;;;2.70;;
16173;SDS011;14031;50.158;8.626;2024-01-16T00:24:56;8.30;;;3.07;;
16173;SDS011;14031;50.158;8.626;2024-01-16T00:27:24;2.73;;;2.53;;
16173;SDS011;14031;50.158;8.626;2024-01-16T00:29:51;3.70;;;2.40;;
16173;SDS011;14031;50.158;8.626;2024-01-16T00:32:17;3.00;;;2.80;;
16173;SDS011;14031;50.158;8.626;2024-01-16T00:34:44;3.60;;;2.63;;
16173;SDS011;14031;50.158;8.626;2024-01-16T00:37:12;2.43;;;2.30;;
16173;SDS011;14031;50.158;8.626;2024-01-16T00:39:39;5.30;;;2.50;;
16173;SDS011;14031;50.158;8.626;2024-01-16T00:42:06;2.60;;;2.40;;
16173;SDS011;14031;50.158;8.626;2024-01-16T00:44:33;3.20;;;2.90;;
16173;SDS011;14031;50.158;8.626;2024-01-16T00:46:59;4.80;;;2.90;;
16173;SDS011;14031;50.158;8.626;2024-01-16T00:49:27;10.03;;;2.93;;
16173;SDS011;14031;50.158;8.626;2024-01-16T00:51:54;3.80;;;2.50;;
16173;SDS011;14031;50.158;8.626;2024-01-16T00:54:22;9.73;;;2.83;;
16173;SDS011;14031;50.158;8.626;2024-01-16T00:56:48;6.83;;;2.97;;
16173;SDS011;14031;50.158;8.626;2024-01-16T00:59:20;2.57;;;2.37;;
16173;SDS011;14031;50.158;8.626;2024-01-16T01:01:47;4.53;;;2.80;;
16173;SDS011;14031;50.158;8.626;2024-01-16T01:04:13;3.43;;;3.13;;
16173;SDS011;14031;50.158;8.626;2024-01-16T01:06:40;6.40;;;2.90;;
16173;SDS011;14031;50.158;8.626;2024-01-16T01:09:07;5.97;;;3.53;;
16173;SDS011;14031;50.158;8.626;2024-01-16T01:11:38;3.00;;;2.73;;
16173;SDS011;14031;50.158;8.626;2024-01-16T01:14:05;3.10;;;2.90;;
16173;SDS011;14031;50.158;8.626;2024-01-16T01:16:31;4.53;;;3.00;;
16173;SDS011;14031;50.158;8.626;2024-01-16T01:18:57;3.40;;;2.80;;
16173;SDS011;14031;50.158;8.626;2024-01-16T01:21:24;2.97;;;2.77;;
16173;SDS011;14031;50.158;8.626;2024-01-16T01:23:52;3.17;;;2.77;;
16173;SDS011;14031;50.158;8.626;2024-01-16T01:26:18;3.00;;;2.70;;
16173;SDS011;14031;50.158;8.626;2024-01-16T01:28:46;5.00;;;2.90;;
16173;SDS011;14031;50.158;8.626;2024-01-16T01:31:13;6.63;;;3.27;;
16173;SDS011;14031;50.158;8.626;2024-01-16T01:33:40;3.77;;;3.10;;
16173;SDS011;14031;50.158;8.626;2024-01-16T01:36:07;4.70;;;3.10;;
16173;SDS011;14031;50.158;8.626;2024-01-16T01:38:35;4.13;;;3.27;;
16173;SDS011;14031;50.158;8.626;2024-01-16T01:41:01;6.00;;;3.27;;
16173;SDS011;14031;50.158;8.626;2024-01-16T01:43:29;5.00;;;3.27;;
16173;SDS011;14031;50.158;8.626;2024-01-16T01:46:06;4.87;;;2.67;;
16173;SDS011;14031;50.158;8.626;2024-01-16T01:48:36;6.30;;;3.17;;
16173;SDS011;14031;50.158;8.626;2024-01-16T01:51:03;2.83;;;2.63;;
16173;SDS011;14031;50.158;8.626;2024-01-16T01:53:30;3.50;;;3.20;;
16173;SDS011;14031;50.158;8.626;2024-01-16T01:55:59;3.50;;;3.20;;
16173;SDS011;14031;50.158;8.626;2024-01-16T01:58:29;3.60;;;2.57;;
16173;SDS011;14031;50.158;8.626;2024-01-16T02:00:56;3.77;;;3.00;;
16173;SDS011;14031;50.158;8.626;2024-01-16T02:03:24;3.57;;;3.27;;
16173;SDS011;14031;50.158;8.626;2024-01-16T02:05:53;3.10;;;2.80;;
16173;SDS011;14031;50.158;8.626;2024-01-16T02:08:21;3.70;;;3.40;;
16173;SDS011;14031;50.158;8.626;2024-01-16T02:10:49;4.03;;;3.10;;
16173;SDS011;14031;50.158;8.626;2024-01-16T02:13:16;6.40;;;4.10;;
16173;SDS011;14031;50.158;8.626;2024-01-16T02:15:48;4.67;;;3.20;;
16173;SDS011;14031;50.158;8.626;2024-01-16T02:18:15;5.07;;;3.60;;
16173;SDS011;14031;50.158;8.626;2024-01-16T02:20:43;3.63;;;3.40;;
16173;SDS011;14031;50.158;8.626;2024-01-16T02:23:11;3.90;;;3.47;;
16173;SDS011;14031;50.158;8.626;2024-01-16T02:25:41;5.73;;;4.10;;
16173;SDS011;14031;50.158;8.626;2024-01-16T02:28:08;3.90;;;3.47;;
16173;SDS011;14031;50.158;8.626;2024-01-16T02:30:35;6.40;;;4.53;;
16173;SDS011;14031;50.158;8.626;2024-01-16T02:33:01;9.10;;;3.67;;
16173;SDS011;14031;50.158;8.626;2024-01-16T02:35:29;4.57;;;4.20;;
16173;SDS011;14031;50.158;8.626;2024-01-16T02:37:56;7.70;;;4.23;;
16173;SDS011;14031;50.158;8.626;2024-01-16T02:40:22;4.47;;;3.83;;
16173;SDS011;14031;50.158;8.626;2024-01-16T02:42:50;9.30;;;4.00;;
16173;SDS011;14031;50.158;8.626;2024-01-16T02:45:17;4.97;;;4.10;;
16173;SDS011;14031;50.158;8.626;2024-01-16T02:47:44;5.13;;;4.60;;
16173;SDS011;14031;50.158;8.626;2024-01-16T02:50:11;7.13;;;4.17;;
16173;SDS011;14031;50.158;8.626;2024-01-16T02:52:38;7.67;;;4.37;;
16173;SDS011;14031;50.158;8.626;2024-01-16T02:55:05;4.83;;;4.17;;
16173;SDS011;14031;50.158;8.626;2024-01-16T02:57:33;4.27;;;3.93;;
16173;SDS011;14031;50.158;8.626;2024-01-16T03:00:01;9.40;;;4.63;;
16173;SDS011;14031;50.158;8.626;2024-01-16T03:02:28;4.37;;;4.00;;
16173;SDS011;14031;50.158;8.626;2024-01-16T03:04:55;6.77;;;4.00;;
16173;SDS011;14031;50.158;8.626;2024-01-16T03:07:22;6.67;;;4.53;;
16173;SDS011;14031;50.158;8.626;2024-01-16T03:09:48;8.37;;;4.30;;
16173;SDS011;14031;50.158;8.626;2024-01-16T03:12:16;9.47;;;4.07;;
16173;SDS011;14031;50.158;8.626;2024-01-16T03:14:42;5.40;;;4.20;;
16173;SDS011;14031;50.158;8.626;2024-01-16T03:17:11;6.17;;;4.13;;
16173;SDS011;14031;50.158;8.626;2024-01-16T03:19:38;6.43;;;3.90;;
16173;SDS011;14031;50.158;8.626;2024-01-16T03:22:04;5.83;;;3.80;;
16173;SDS011;14031;50.158;8.626;2024-01-16T03:24:31;7.40;;;4.23;;
16173;SDS011;14031;50.158;8.626;2024-01-16T03:26:58;7.53;;;4.23;;
16173;SDS011;14031;50.158;8.626;2024-01-16T03:29:24;6.30;;;3.83;;
16173;SDS011;14031;50.158;8.626;2024-01-16T03:31:51;3.90;;;3.70;;
16173;SDS011;14031;50.158;8.626;2024-01-16T03:34:19;7.63;;;3.57;;
16173;SDS011;14031;50.158;8.626;2024-01-16T03:36:46;3.90;;;3.60;;
16173;SDS011;14031;50.158;8.626;2024-01-16T03:39:13;4.30;;;3.90;;
16173;SDS011;14031;50.158;8.626;2024-01-16T03:41:39;4.13;;;3.80;;
16173;SDS011;14031;50.158;8.626;2024-01-16T03:44:06;5.50;;;3.63;;
16173;SDS011;14031;50.158;8.626;2024-01-16T03:46:33;7.40;;;4.43;;
16173;SDS011;14031;50.158;8.626;2024-01-16T03:49:00;12.23;;;4.20;;
16173;SDS011;14031;50.158;8.626;2024-01-16T03:51:28;6.77;;;3.80;;
16173;SDS011;14031;50.158;8.626;2024-01-16T03:53:55;6.30;;;4.20;;
16173;SDS011;14031;50.158;8.626;2024-01-16T03:56:21;9.70;;;4.13;;
16173;SDS011;14031;50.158;8.626;2024-01-16T03:58:48;3.60;;;3.40;;
16173;SDS011;14031;50.158;8.626;2024-01-16T04:01:15;5.93;;;3.87;;
16173;SDS011;14031;50.158;8.626;2024-01-16T04:03:42;7.30;;;4.07;;
16173;SDS011;14031;50.158;8.626;2024-01-16T04:06:15;10.33;;;3.80;;
16173;SDS011;14031;50.158;8.626;2024-01-16T04:08:44;5.23;;;3.87;;
16173;SDS011;14031;50.158;8.626;2024-01-16T04:11:11;3.60;;;3.30;;
16173;SDS011;14031;50.158;8.626;2024-01-16T04:13:38;5.50;;;4.13;;
16173;SDS011;14031;50.158;8.626;2024-01-16T04:16:05;4.10;;;3.63;;
16173;SDS011;14031;50.158;8.626;2024-01-16T04:18:34;5.63;;;3.73;;
16173;SDS011;14031;50.158;8.626;2024-01-16T04:21:01;6.43;;;3.80;;
16173;SDS011;14031;50.158;8.626;2024-01-16T04:23:28;9.97;;;3.30;;
16173;SDS011;14031;50.158;8.626;2024-01-16T04:25:56;6.80;;;3.53;;
16173;SDS011;14031;50.158;8.626;2024-01-16T04:28:23;4.10;;;3.70;;
16173;SDS011;14031;50.158;8.626;2024-01-16T04:30:50;4.83;;;3.70;;
16173;SDS011;14031;50.158;8.626;2024-01-16T04:33:17;12.50;;;3.87;;
16173;SDS011;14031;50.158;8.626;2024-01-16T04:35:43;11.13;;;3.50;;
16173;SDS011;14031;50.158;8.626;2024-01-16T04:38:10;6.83;;;3.50;;
16173;SDS011;14031;50.158;8.626;2024-01-16T04:40:37;6.73;;;4.17;;
16173;SDS011;14031;50.158;8.626;2024-01-16T04:43:05;6.60;;;4.57;;
16173;SDS011;14031;50.158;8.626;2024-01-16T04:45:32;3.83;;;3.53;;
16173;SDS011;14031;50.158;8.626;2024-01-16T04:47:58;3.83;;;3.63;;
16173;SDS011;14031;50.158;8.626;2024-01-16T04:50:25;8.00;;;3.73;;
16173;SDS011;14031;50.158;8.626;2024-01-16T04:52:56;8.27;;;3.83;;
16173;SDS011;14031;50.158;8.626;2024-01-16T04:55:24;4.50;;;3.80;;
16173;SDS011;14031;50.158;8.626;2024-01-16T04:57:51;6.27;;;3.83;;
16173;SDS011;14031;50.158;8.626;2024-01-16T05:00:20;10.80;;;4.40;;
16173;SDS011;14031;50.158;8.626;2024-01-16T05:02:47;5.00;;;3.80;;
16173;SDS011;14031;50.158;8.626;2024-01-16T05:05:13;9.00;;;3.90;;
16173;SDS011;14031;50.158;8.626;2024-01-16T05:07:41;5.30;;;3.80;;
16173;SDS011;14031;50.158;8.626;2024-01-16T05:10:09;7.27;;;4.27;;
16173;SDS011;14031;50.158;8.626;2024-01-16T05:12:37;4.53;;;4.23;;
16173;SDS011;14031;50.158;8.626;2024-01-16T05:15:04;7.63;;;3.97;;
16173;SDS011;14031;50.158;8.626;2024-01-16T05:17:34;9.63;;;4.07;;
16173;SDS011;14031;50.158;8.626;2024-01-16T05:20:01;9.07;;;4.57;;
16173;SDS011;14031;50.158;8.626;2024-01-16T05:22:29;7.90;;;3.80;;
16173;SDS011;14031;50.158;8.626;2024-01-16T05:24:56;5.53;;;4.20;;
16173;SDS011;14031;50.158;8.626;2024-01-16T05:27:23;11.20;;;4.03;;
16173;SDS011;14031;50.158;8.626;2024-01-16T05:29:50;8.53;;;4.80;;
16173;SDS011;14031;50.158;8.626;2024-01-16T05:32:17;4.60;;;4.20;;
16173;SDS011;14031;50.158;8.626;2024-01-16T05:34:45;6.40;;;4.50;;
16173;SDS011;14031;50.158;8.626;2024-01-16T05:37:12;10.30;;;3.97;;
16173;SDS011;14031;50.158;8.626;2024-01-16T05:39:38;6.43;;;4.33;;
16173;SDS011;14031;50.158;8.626;2024-01-16T05:42:05;8.37;;;4.50;;
16173;SDS011;14031;50.158;8.626;2024-01-16T05:44:32;6.83;;;4.27;;
16173;SDS011;14031;50.158;8.626;2024-01-16T05:46:59;8.37;;;4.27;;
16173;SDS011;14031;50.158;8.626;2024-01-16T05:49:26;4.33;;;3.90;;
16173;SDS011;14031;50.158;8.626;2024-01-16T05:51:54;6.10;;;4.60;;
16173;SDS011;14031;50.158;8.626;2024-01-16T05:54:21;7.70;;;4.33;;
16173;SDS011;14031;50.158;8.626;2024-01-16T05:56:47;9.60;;;4.80;;
16173;SDS011;14031;50.158;8.626;2024-01-16T05:59:15;4.50;;;4.10;;
16173;SDS011;14031;50.158;8.626;2024-01-16T06:01:42;5.97;;;4.20;;
16173;SDS011;14031;50.158;8.626;2024-01-16T06:04:08;10.57;;;3.90;;
16173;SDS011;14031;50.158;8.626;2024-01-16T06:06:35;5.90;;;4.30;;
16173;SDS011;14031;50.158;8.626;2024-01-16T06:09:03;7.40;;;4.13;;
16173;SDS011;14031;50.158;8.626;2024-01-16T06:11:30;7.37;;;3.57;;
16173;SDS011;14031;50.158;8.626;2024-01-16T06:13:58;7.30;;;4.53;;
16173;SDS011;14031;50.158;8.626;2024-01-16T06:16:25;4.77;;;4.47;;
16173;SDS011;14031;50.158;8.626;2024-01-16T06:18:52;4.53;;;3.87;;
16173;SDS011;14031;50.158;8.626;2024-01-16T06:21:19;6.23;;;4.37;;
16173;SDS011;14031;50.158;8.626;2024-01-16T06:23:45;11.40;;;4.87;;
16173;SDS011;14031;50.158;8.626;2024-01-16T06:26:13;6.23;;;4.27;;
16173;SDS011;14031;50.158;8.626;2024-01-16T06:28:40;8.27;;;4.40;;
16173;SDS011;14031;50.158;8.626;2024-01-16T06:31:08;6.93;;;4.40;;
16173;SDS011;14031;50.158;8.626;2024-01-16T06:33:34;5.97;;;4.90;;
16173;SDS011;14031;50.158;8.626;2024-01-16T06:36:02;6.57;;;5.13;;
16173;SDS011;14031;50.158;8.626;2024-01-16T06:38:30;5.93;;;4.57;;
16173;SDS011;14031;50.158;8.626;2024-01-16T06:40:56;5.53;;;3.90;;
16173;SDS011;14031;50.158;8.626;2024-01-16T06:43:25;4.77;;;4.10;;
16173;SDS011;14031;50.158;8.626;2024-01-16T06:45:51;6.20;;;4.47;;
16173;SDS011;14031;50.158;8.626;2024-01-16T06:48:18;4.53;;;4.13;;
16173;SDS011;14031;50.158;8.626;2024-01-16T06:50:45;5.50;;;4.90;;
16173;SDS011;14031;50.158;8.626;2024-01-16T06:53:12;7.07;;;4.37;;
16173;SDS011;14031;50.158;8.626;2024-01-16T06:55:39;7.53;;;4.20;;
16173;SDS011;14031;50.158;8.626;2024-01-16T06:58:05;9.20;;;4.53;;
16173;SDS011;14031;50.158;8.626;2024-01-16T07:00:36;8.23;;;4.77;;
16173;SDS011;14031;50.158;8.626;2024-01-16T07:03:03;6.00;;;4.03;;
16173;SDS011;14031;50.158;8.626;2024-01-16T07:05:30;8.93;;;5.00;;
16173;SDS011;14031;50.158;8.626;2024-01-16T07:07:56;8.70;;;4.57;;
16173;SDS011;14031;50.158;8.626;2024-01-16T07:10:23;4.87;;;4.37;;
16173;SDS011;14031;50.158;8.626;2024-01-16T07:12:50;8.13;;;4.53;;
16173;SDS011;14031;50.158;8.626;2024-01-16T07:15:17;7.20;;;4.93;;
16173;SDS011;14031;50.158;8.626;2024-01-16T07:17:45;4.73;;;4.33;;
16173;SDS011;14031;50.158;8.626;2024-01-16T07:20:12;7.50;;;5.07;;
16173;SDS011;14031;50.158;8.626;2024-01-16T07:22:39;6.37;;;4.73;;
16173;SDS011;14031;50.158;8.626;2024-01-16T07:25:06;11.67;;;5.37;;
16173;SDS011;14031;50.158;8.626;2024-01-16T07:27:33;7.67;;;4.63;;
16173;SDS011;14031;50.158;8.626;2024-01-16T07:30:00;9.07;;;4.73;;
16173;SDS011;14031;50.158;8.626;2024-01-16T07:32:27;9.43;;;5.17;;
16173;SDS011;14031;50.158;8.626;2024-01-16T07:34:55;7.23;;;4.73;;
16173;SDS011;14031;50.158;8.626;2024-01-16T07:37:22;5.87;;;5.20;;
16173;SDS011;14031;50.158;8.626;2024-01-16T07:39:48;6.93;;;5.23;;
16173;SDS011;14031;50.158;8.626;2024-01-16T07:42:15;12.13;;;5.43;;
16173;SDS011;14031;50.158;8.626;2024-01-16T07:44:42;5.40;;;4.90;;
16173;SDS011;14031;50.158;8.626;2024-01-16T07:47:09;8.37;;;5.27;;
16173;SDS011;14031;50.158;8.626;2024-01-16T07:49:35;5.67;;;5.17;;
16173;SDS011;14031;50.158;8.626;2024-01-16T07:52:04;7.43;;;5.33;;
16173;SDS011;14031;50.158;8.626;2024-01-16T07:54:31;8.57;;;5.70;;
16173;SDS011;14031;50.158;8.626;2024-01-16T07:56:58;9.23;;;5.50;;
16173;SDS011;14031;50.158;8.626;2024-01-16T07:59:25;8.60;;;6.03;;
16173;SDS011;14031;50.158;8.626;2024-01-16T08:01:52;8.07;;;5.33;;
16173;SDS011;14031;50.158;8.626;2024-01-16T08:04:19;7.03;;;6.00;;
16173;SDS011;14031;50.158;8.626;2024-01-16T08:06:46;7.47;;;5.83;;
16173;SDS011;14031;50.158;8.626;2024-01-16T08:09:14;12.20;;;5.83;;
16173;SDS011;14031;50.158;8.626;2024-01-16T08:11:42;11.17;;;5.30;;
16173;SDS011;14031;50.158;8.626;2024-01-16T08:14:09;13.50;;;6.60;;
16173;SDS011;14031;50.158;8.626;2024-01-16T08:16:36;7.37;;;5.70;;
16173;SDS011;14031;50.158;8.626;2024-01-16T08:19:02;9.83;;;5.57;;
16173;SDS011;14031;50.158;8.626;2024-01-16T08:21:29;8.50;;;5.47;;
16173;SDS011;14031;50.158;8.626;2024-01-16T08:23:56;12.97;;;6.37;;
16173;SDS011;14031;50.158;8.626;2024-01-16T08:26:25;9.90;;;6.00;;
16173;SDS011;14031;50.158;8.626;2024-01-16T08:28:51;6.47;;;5.87;;
16173;SDS011;14031;50.158;8.626;2024-01-16T08:31:18;8.53;;;6.13;;
16173;SDS011;14031;50.158;8.626;2024-01-16T08:33:45;5.97;;;5.37;;
16173;SDS011;14031;50.158;8.626;2024-01-16T08:36:12;7.37;;;5.37;;
16173;SDS011;14031;50.158;8.626;2024-01-16T08:38:39;8.03;;;4.87;;
16173;SDS011;14031;50.158;8.626;2024-01-16T08:41:06;5.37;;;4.70;;
16173;SDS011;14031;50.158;8.626;2024-01-16T08:43:35;9.73;;;5.73;;
16173;SDS011;14031;50.158;8.626;2024-01-16T08:46:02;8.03;;;5.20;;
16173;SDS011;14031;50.158;8.626;2024-01-16T08:48:29;8.10;;;5.33;;
16173;SDS011;14031;50.158;8.626;2024-01-16T08:50:56;9.87;;;5.03;;
16173;SDS011;14031;50.158;8.626;2024-01-16T08:53:23;5.57;;;5.07;;
16173;SDS011;14031;50.158;8.626;2024-01-16T08:55:50;14.07;;;5.00;;
16173;SDS011;14031;50.158;8.626;2024-01-16T08:58:17;7.90;;;5.43;;
16173;SDS011;14031;50.158;8.626;2024-01-16T09:00:46;9.70;;;5.53;;
16173;SDS011;14031;50.158;8.626;2024-01-16T09:03:13;9.77;;;6.27;;
16173;SDS011;14031;50.158;8.626;2024-01-16T09:05:39;7.63;;;5.73;;
16173;SDS011;14031;50.158;8.626;2024-01-16T09:08:06;11.60;;;5.20;;
16173;SDS011;14031;50.158;8.626;2024-01-16T09:10:33;5.57;;;5.03;;
16173;SDS011;14031;50.158;8.626;2024-01-16T09:13:00;7.43;;;5.00;;
16173;SDS011;14031;50.158;8.626;2024-01-16T09:15:26;11.97;;;6.00;;
16173;SDS011;14031;50.158;8.626;2024-01-16T09:17:55;6.43;;;5.73;;
16173;SDS011;14031;50.158;8.626;2024-01-16T09:20:22;6.50;;;5.50;;
16173;SDS011;14031;50.158;8.626;2024-01-16T09:22:48;6.73;;;6.13;;
16173;SDS011;14031;50.158;8.626;2024-01-16T09:25:15;10.70;;;5.60;;
16173;SDS011;14031;50.158;8.626;2024-01-16T09:27:42;7.00;;;5.63;;
16173;SDS011;14031;50.158;8.626;2024-01-16T09:30:09;6.20;;;5.60;;
16173;SDS011;14031;50.158;8.626;2024-01-16T09:32:37;8.67;;;6.07;;
16173;SDS011;14031;50.158;8.626;2024-01-16T09:35:06;7.60;;;5.77;;
16173;SDS011;14031;50.158;8.626;2024-01-16T09:37:34;6.83;;;5.63;;
16173;SDS011;14031;50.158;8.626;2024-01-16T09:40:01;8.80;;;6.00;;
16173;SDS011;14031;50.158;8.626;2024-01-16T09:42:30;10.97;;;5.73;;
16173;SDS011;14031;50.158;8.626;2024-01-16T09:44:57;7.47;;;6.73;;
16173;SDS011;14031;50.158;8.626;2024-01-16T09:47:26;10.53;;;5.80;;
16173;SDS011;14031;50.158;8.626;2024-01-16T09:49:53;10.03;;;5.47;;
16173;SDS011;14031;50.158;8.626;2024-01-16T09:52:23;8.63;;;5.90;;
16173;SDS011;14031;50.158;8.626;2024-01-16T09:54:50;8.40;;;5.57;;
16173;SDS011;14031;50.158;8.626;2024-01-16T09:57:17;8.03;;;5.70;;
16173;SDS011;14031;50.158;8.626;2024-01-16T09:59:47;7.80;;;5.83;;
16173;SDS011;14031;50.158;8.626;2024-01-16T10:02:14;6.57;;;5.97;;
16173;SDS011;14031;50.158;8.626;2024-01-16T10:04:42;7.80;;;6.27;;
16173;SDS011;14031;50.158;8.626;2024-01-16T10:07:10;8.17;;;6.43;;
16173;SDS011;14031;50.158;8.626;2024-01-16T10:09:42;9.50;;;6.17;;
16173;SDS011;14031;50.158;8.626;2024-01-16T10:12:09;7.10;;;5.93;;
16173;SDS011;14031;50.158;8.626;2024-01-16T10:14:36;9.87;;;6.03;;
16173;SDS011;14031;50.158;8.626;2024-01-16T10:17:05;10.13;;;5.90;;
16173;SDS011;14031;50.158;8.626;2024-01-16T10:19:47;8.27;;;6.37;;
16173;SDS011;14031;50.158;8.626;2024-01-16T10:22:19;8.23;;;6.03;;
16173;SDS011;14031;50.158;8.626;2024-01-16T10:24:48;9.50;;;6.13;;
16173;SDS011;14031;50.158;8.626;2024-01-16T10:27:15;9.13;;;6.27;;
16173;SDS011;14031;50.158;8.626;2024-01-16T10:29:49;8.17;;;5.60;;
16173;SDS011;14031;50.158;8.626;2024-01-16T10:32:27;6.93;;;6.00;;
16173;SDS011;14031;50.158;8.626;2024-01-16T10:35:05;13.03;;;6.43;;
16173;SDS011;14031;50.158;8.626;2024-01-16T10:37:42;7.83;;;6.37;;
16173;SDS011;14031;50.158;8.626;2024-01-16T10:40:12;6.70;;;5.40;;
16173;SDS011;14031;50.158;8.626;2024-01-16T10:42:41;7.70;;;5.93;;
16173;SDS011;14031;50.158;8.626;2024-01-16T10:45:08;7.90;;;5.77;;
16173;SDS011;14031;50.158;8.626;2024-01-16T10:47:42;9.40;;;6.10;;
16173;SDS011;14031;50.158;8.626;2024-01-16T10:50:08;7.60;;;5.83;;
16173;SDS011;14031;50.158;8.626;2024-01-16T10:52:35;7.03;;;6.17;;
16173;SDS011;14031;50.158;8.626;2024-01-16T10:55:12;8.47;;;6.13;;
16173;SDS011;14031;50.158;8.626;2024-01-16T10:57:47;8.50;;;6.37;;
16173;SDS011;14031;50.158;8.626;2024-01-16T11:00:15;9.77;;;6.87;;
16173;SDS011;14031;50.158;8.626;2024-01-16T11:02:50;8.77;;;6.90;;
16173;SDS011;14031;50.158;8.626;2024-01-16T11:05:20;6.70;;;5.87;;
16173;SDS011;14031;50.158;8.626;2024-01-16T11:07:48;8.73;;;5.50;;
16173;SDS011;14031;50.158;8.626;2024-01-16T11:10:18;10.20;;;6.33;;
16173;SDS011;14031;50.158;8.626;2024-01-16T11:12:46;10.40;;;5.90;;
16173;SDS011;14031;50.158;8.626;2024-01-16T11:15:14;6.70;;;6.10;;
16173;SDS011;14031;50.158;8.626;2024-01-16T11:17:43;13.90;;;6.90;;
16173;SDS011;14031;50.158;8.626;2024-01-16T11:20:11;6.17;;;5.33;;
16173;SDS011;14031;50.158;8.626;2024-01-16T11:22:40;10.77;;;5.93;;
16173;SDS011;14031;50.158;8.626;2024-01-16T11:25:09;9.17;;;6.20;;
16173;SDS011;14031;50.158;8.626;2024-01-16T11:27:38;6.50;;;5.53;;
16173;SDS011;14031;50.158;8.626;2024-01-16T11:30:06;6.07;;;5.43;;
16173;SDS011;14031;50.158;8.626;2024-01-16T11:32:35;8.27;;;5.63;;
16173;SDS011;14031;50.158;8.626;2024-01-16T11:35:02;9.73;;;5.73;;
16173;SDS011;14031;50.158;8.626;2024-01-16T11:37:31;9.10;;;5.73;;
16173;SDS011;14031;50.158;8.626;2024-01-16T11:42:49;9.20;;;5.93;;
16173;SDS011;14031;50.158;8.626;2024-01-16T11:48:18;8.20;;;5.93;;
16173;SDS011;14031;50.158;8.626;2024-01-16T11:50:46;13.07;;;5.17;;
16173;SDS011;14031;50.158;8.626;2024-01-16T11:53:31;9.07;;;5.60;;
16173;SDS011;14031;50.158;8.626;2024-01-16T11:56:13;14.90;;;5.37;;
16173;SDS011;14031;50.158;8.626;2024-01-16T11:59:06;9.53;;;5.17;;
16173;SDS011;14031;50.158;8.626;2024-01-16T12:01:54;5.80;;;4.87;;
16173;SDS011;14031;50.158;8.626;2024-01-16T12:04:25;8.37;;;5.13;;
16173;SDS011;14031;50.158;8.626;2024-01-16T12:06:59;8.20;;;5.33;;
16173;SDS011;14031;50.158;8.626;2024-01-16T12:09:27;7.50;;;5.33;;
16173;SDS011;14031;50.158;8.626;2024-01-16T12:11:57;9.80;;;5.50;;
16173;SDS011;14031;50.158;8.626;2024-01-16T12:14:27;10.70;;;5.03;;
16173;SDS011;14031;50.158;8.626;2024-01-16T12:17:07;7.97;;;5.60;;
16173;SDS011;14031;50.158;8.626;2024-01-16T12:19:35;14.17;;;5.60;;
16173;SDS011;14031;50.158;8.626;2024-01-16T12:22:01;8.33;;;5.30;;
16173;SDS011;14031;50.158;8.626;2024-01-16T12:24:28;7.77;;;4.70;;
16173;SDS011;14031;50.158;8.626;2024-01-16T12:26:57;7.10;;;5.10;;
16173;SDS011;14031;50.158;8.626;2024-01-16T12:29:24;11.40;;;5.27;;
16173;SDS011;14031;50.158;8.626;2024-01-16T12:31:52;8.17;;;5.17;;
16173;SDS011;14031;50.158;8.626;2024-01-16T12:34:31;8.43;;;4.80;;
16173;SDS011;14031;50.158;8.626;2024-01-16T12:37:04;6.57;;;4.97;;
16173;SDS011;14031;50.158;8.626;2024-01-16T12:39:31;11.33;;;5.47;;
16173;SDS011;14031;50.158;8.626;2024-01-16T12:42:00;8.23;;;4.70;;
16173;SDS011;14031;50.158;8.626;2024-01-16T12:44:28;7.27;;;5.20;;
16173;SDS011;14031;50.158;8.626;2024-01-16T12:46:57;5.60;;;5.10;;
16173;SDS011;14031;50.158;8.626;2024-01-16T12:49:26;8.27;;;5.50;;
16173;SDS011;14031;50.158;8.626;2024-01-16T12:54:43;11.43;;;4.93;;
16173;SDS011;14031;50.158;8.626;2024-01-16T12:57:09;9.83;;;5.80;;
16173;SDS011;14031;50.158;8.626;2024-01-16T12:59:42;12.10;;;5.63;;
16173;SDS011;14031;50.158;8.626;2024-01-16T13:02:10;6.90;;;5.23;;
16173;SDS011;14031;50.158;8.626;2024-01-16T13:04:55;5.73;;;5.10;;
16173;SDS011;14031;50.158;8.626;2024-01-16T13:07:23;7.43;;;5.30;;
16173;SDS011;14031;50.158;8.626;2024-01-16T13:09:50;5.77;;;4.70;;
16173;SDS011;14031;50.158;8.626;2024-01-16T13:12:31;10.37;;;5.00;;
16173;SDS011;14031;50.158;8.626;2024-01-16T13:14:58;6.73;;;4.50;;
16173;SDS011;14031;50.158;8.626;2024-01-16T13:17:26;4.90;;;4.40;;
16173;SDS011;14031;50.158;8.626;2024-01-16T13:19:53;7.20;;;4.37;;
16173;SDS011;14031;50.158;8.626;2024-01-16T13:22:20;8.07;;;4.77;;
16173;SDS011;14031;50.158;8.626;2024-01-16T13:24:47;7.50;;;4.40;;
16173;SDS011;14031;50.158;8.626;2024-01-16T13:27:13;8.10;;;4.43;;
16173;SDS011;14031;50.158;8.626;2024-01-16T13:29:40;7.50;;;5.00;;
16173;SDS011;14031;50.158;8.626;2024-01-16T13:32:09;6.90;;;4.77;;
16173;SDS011;14031;50.158;8.626;2024-01-16T13:34:37;10.93;;;5.00;;
16173;SDS011;14031;50.158;8.626;2024-01-16T13:37:08;9.30;;;5.00;;
16173;SDS011;14031;50.158;8.626;2024-01-16T13:39:34;9.00;;;4.27;;
16173;SDS011;14031;50.158;8.626;2024-01-16T13:42:03;10.23;;;5.33;;
16173;SDS011;14031;50.158;8.626;2024-01-16T13:44:31;9.03;;;5.10;;
16173;SDS011;14031;50.158;8.626;2024-01-16T13:46:58;5.10;;;4.57;;
16173;SDS011;14031;50.158;8.626;2024-01-16T13:49:25;6.37;;;4.80;;
16173;SDS011;14031;50.158;8.626;2024-01-16T13:51:53;6.20;;;4.47;;
16173;SDS011;14031;50.158;8.626;2024-01-16T13:54:20;5.17;;;4.67;;
16173;SDS011;14031;50.158;8.626;2024-01-16T13:56:46;12.13;;;5.03;;
16173;SDS011;14031;50.158;8.626;2024-01-16T13:59:13;9.10;;;5.40;;
16173;SDS011;14031;50.158;8.626;2024-01-16T14:01:40;8.67;;;4.93;;
16173;SDS011;14031;50.158;8.626;2024-01-16T14:04:07;9.47;;;5.10;;
16173;SDS011;14031;50.158;8.626;2024-01-16T14:06:34;11.80;;;5.37;;
16173;SDS011;14031;50.158;8.626;2024-01-16T14:09:02;9.33;;;5.07;;
16173;SDS011;14031;50.158;8.626;2024-01-16T14:11:29;5.03;;;4.63;;
16173;SDS011;14031;50.158;8.626;2024-01-16T14:13:56;10.13;;;4.57;;
16173;SDS011;14031;50.158;8.626;2024-01-16T14:16:23;6.63;;;4.80;;
16173;SDS011;14031;50.158;8.626;2024-01-16T14:18:54;6.70;;;4.33;;
16173;SDS011;14031;50.158;8.626;2024-01-16T14:21:20;5.07;;;4.57;;
16173;SDS011;14031;50.158;8.626;2024-01-16T14:23:47;5.90;;;5.33;;
16173;SDS011;14031;50.158;8.626;2024-01-16T14:26:15;11.43;;;5.60;;
16173;SDS011;14031;50.158;8.626;2024-01-16T14:28:42;6.97;;;4.70;;
16173;SDS011;14031;50.158;8.626;2024-01-16T14:31:10;7.57;;;4.90;;
16173;SDS011;14031;50.158;8.626;2024-01-16T14:33:37;8.37;;;4.60;;
16173;SDS011;14031;50.158;8.626;2024-01-16T14:36:04;7.80;;;4.70;;
16173;SDS011;14031;50.158;8.626;2024-01-16T14:38:31;9.80;;;4.33;;
16173;SDS011;14031;50.158;8.626;2024-01-16T14:40:58;11.00;;;4.90;;
16173;SDS011;14031;50.158;8.626;2024-01-16T14:43:26;7.53;;;4.20;;
16173;SDS011;14031;50.158;8.626;2024-01-16T14:45:52;11.17;;;4.83;;
16173;SDS011;14031;50.158;8.626;2024-01-16T14:48:19;7.83;;;4.10;;
16173;SDS011;14031;50.158;8.626;2024-01-16T14:50:47;12.13;;;4.20;;
16173;SDS011;14031;50.158;8.626;2024-01-16T14:53:14;5.57;;;3.93;;
16173;SDS011;14031;50.158;8.626;2024-01-16T14:55:41;12.80;;;4.60;;
16173;SDS011;14031;50.158;8.626;2024-01-16T14:58:08;8.93;;;4.63;;